createdAt,value
2023-04-15T00:04:12.909Z,100955.63
2023-04-15T00:09:14.636Z,100956.66
2023-04-15T00:14:16.537Z,100943.66
2023-04-15T00:19:19.128Z,100947.72
2023-04-15T00:24:26.466Z,100954.03
2023-04-15T00:29:28.436Z,100922.13
2023-04-15T00:34:30.647Z,100938.84
2023-04-15T00:39:32.216Z,100956.00
2023-04-15T00:44:34.699Z,100963.63
2023-04-15T00:49:36.603Z,100958.56
2023-04-15T00:54:38.199Z,100965.31
2023-04-15T00:59:39.916Z,100960.28
2023-04-15T01:04:42.165Z,100959.16
2023-04-15T01:09:46.072Z,100934.66
2023-04-15T01:14:49.705Z,100977.19
2023-04-15T01:19:57.932Z,100969.78
2023-04-15T01:25:13.629Z,100962.72
2023-04-15T01:30:22.971Z,100973.13
2023-04-15T01:35:24.739Z,100963.25
2023-04-15T01:40:26.333Z,100919.59
2023-04-15T01:45:28.384Z,100979.56
2023-04-15T01:50:29.955Z,100942.22
2023-04-15T01:55:42.193Z,100968.91
2023-04-15T02:00:43.953Z,100985.63
2023-04-15T02:05:45.585Z,100947.56
2023-04-15T02:10:47.525Z,100952.00
2023-04-15T02:15:49.560Z,100981.25
2023-04-15T02:21:18.969Z,100985.84
2023-04-15T02:26:21.060Z,100983.75
2023-04-15T02:31:22.721Z,100992.03
2023-04-15T02:36:24.393Z,101010.50
2023-04-15T02:41:27.823Z,101007.38
2023-04-15T02:46:29.447Z,101023.56
2023-04-15T02:51:33.548Z,101028.84
2023-04-15T02:56:36.080Z,101006.91
2023-04-15T03:01:37.810Z,101029.19
2023-04-15T03:06:39.381Z,101029.19
2023-04-15T03:11:42.118Z,100976.38
2023-04-15T03:16:43.737Z,101043.09
2023-04-15T03:21:45.758Z,101035.84
2023-04-15T03:26:47.441Z,101041.56
2023-04-15T03:32:01.962Z,101045.31
2023-04-15T03:37:21.027Z,101030.47
2023-04-15T03:42:22.591Z,101039.31
2023-04-15T03:47:24.293Z,101018.38
2023-04-15T03:52:42.163Z,101000.66
2023-04-15T03:57:43.730Z,100991.69
2023-04-15T04:02:46.221Z,101080.25
2023-04-15T04:07:58.213Z,101087.84
2023-04-15T04:12:59.746Z,101071.25
2023-04-15T04:18:01.362Z,101093.44
2023-04-15T04:23:02.909Z,101100.00
2023-04-15T04:28:06.668Z,101073.41
2023-04-15T04:33:20.223Z,101052.53
2023-04-15T04:38:47.212Z,101120.16
2023-04-15T04:44:01.338Z,101110.31
2023-04-15T04:49:03.066Z,101105.31
2023-04-15T04:54:14.960Z,101139.59
2023-04-15T04:59:17.028Z,101131.72
2023-04-15T05:04:29.919Z,101139.03
2023-04-15T05:09:32.604Z,101157.34
2023-04-15T05:14:34.097Z,101153.03
2023-04-15T05:19:47.092Z,101187.25
2023-04-15T05:24:51.454Z,101126.59
2023-04-15T05:29:53.030Z,101143.16
2023-04-15T05:34:54.633Z,101199.66
2023-04-15T05:39:59.200Z,101202.81
2023-04-15T05:45:19.292Z,101217.41
2023-04-15T05:50:33.293Z,101228.84
2023-04-15T05:55:35.133Z,101160.16
2023-04-15T06:00:36.891Z,101223.97
2023-04-15T06:05:38.591Z,101253.72
2023-04-15T06:10:40.324Z,101258.88
2023-04-15T06:15:42.402Z,101268.56
2023-04-15T06:20:46.513Z,101242.81
2023-04-15T06:25:48.543Z,101233.50
2023-04-15T06:30:50.140Z,101249.81
2023-04-15T06:35:51.697Z,101296.66
2023-04-15T06:40:53.455Z,101305.25
2023-04-15T06:45:55.070Z,101269.22
2023-04-15T06:50:58.279Z,101305.16
2023-04-15T06:56:03.011Z,101268.84
2023-04-15T07:01:04.914Z,101315.19
2023-04-15T07:06:07.175Z,101323.31
2023-04-15T07:11:08.863Z,101296.03
2023-04-15T07:16:10.537Z,101352.16
2023-04-15T07:21:12.661Z,101359.28
2023-04-15T07:26:14.206Z,101373.84
2023-04-15T07:31:17.053Z,101377.59
2023-04-15T07:36:35.323Z,101372.59
2023-04-15T07:41:49.309Z,101383.72
2023-04-15T07:46:50.874Z,101355.00
2023-04-15T07:51:58.168Z,101387.81
2023-04-15T07:57:11.967Z,101409.25
2023-04-15T08:02:22.833Z,101403.91
2023-04-15T08:07:37.898Z,101384.03
2023-04-15T08:12:39.543Z,101426.22
2023-04-15T08:17:41.171Z,101393.38
2023-04-15T08:22:42.765Z,101419.72
2023-04-15T08:27:44.295Z,101425.41
2023-04-15T08:32:49.020Z,101447.88
2023-04-15T08:37:50.572Z,101450.66
2023-04-15T08:42:57.696Z,101446.94
2023-04-15T08:48:05.275Z,101450.63
2023-04-15T08:53:07.707Z,101476.06
2023-04-15T08:58:11.358Z,101483.66
2023-04-15T09:03:13.033Z,101477.44
2023-04-15T09:08:14.644Z,101479.34
2023-04-15T09:13:16.262Z,101489.34
2023-04-15T09:18:37.334Z,101505.34
2023-04-15T09:23:41.195Z,101509.75
2023-04-15T09:28:48.337Z,101490.94
2023-04-15T09:34:00.690Z,101508.84
2023-04-15T09:39:06.310Z,101505.72
2023-04-15T09:44:27.053Z,101485.50
2023-04-15T09:49:28.833Z,101522.16
2023-04-15T09:54:38.476Z,101531.03
2023-04-15T09:59:40.471Z,101543.56
2023-04-15T10:04:42.177Z,101554.75
2023-04-15T10:09:46.268Z,101533.28
2023-04-15T10:14:59.418Z,101555.63
2023-04-15T10:20:05.381Z,101559.38
2023-04-15T10:25:27.113Z,101579.03
2023-04-15T10:30:38.483Z,101574.66
2023-04-15T10:35:45.019Z,101577.22
2023-04-15T10:40:47.134Z,101581.94
2023-04-15T10:45:48.844Z,101584.91
2023-04-15T10:50:58.107Z,101595.44
2023-04-15T11:01:56.703Z,101587.75
2023-04-15T11:07:07.529Z,101563.66
2023-04-15T11:12:16.002Z,101595.19
2023-04-15T11:17:33.458Z,101620.66
2023-04-15T11:22:35.057Z,101604.41
2023-04-15T11:27:36.632Z,101623.91
2023-04-15T11:32:55.447Z,101568.38
2023-04-15T11:37:57.615Z,101637.50
2023-04-15T11:43:35.674Z,101635.63
2023-04-15T11:48:43.345Z,101634.34
2023-04-15T11:53:50.003Z,101653.03
2023-04-15T11:58:59.483Z,101650.19
2023-04-15T12:04:14.470Z,101661.84
2023-04-15T12:09:16.812Z,101659.63
2023-04-15T12:14:36.728Z,101663.81
2023-04-15T12:19:41.771Z,101627.34
2023-04-15T12:24:57.921Z,101645.91
2023-04-15T12:30:06.207Z,101675.44
2023-04-15T12:35:10.858Z,101702.03
2023-04-15T12:40:19.552Z,101687.94
2023-04-15T12:45:21.472Z,101715.00
2023-04-15T12:50:23.034Z,101706.94
2023-04-15T12:55:24.620Z,101737.50
2023-04-15T13:00:26.460Z,101724.53
2023-04-15T13:05:28.416Z,101724.09
2023-04-15T13:10:52.241Z,101749.59
2023-04-15T13:15:53.896Z,101748.22
2023-04-15T13:20:56.580Z,101748.16
2023-04-15T13:26:01.099Z,101754.28
2023-04-15T13:36:26.375Z,101760.16
2023-04-15T13:41:27.988Z,101764.44
2023-04-15T13:46:29.530Z,101769.38
2023-04-15T13:51:31.821Z,101779.56
2023-04-15T13:56:33.342Z,101800.25
2023-04-15T14:01:35.804Z,101801.44
2023-04-15T14:06:37.444Z,101809.63
2023-04-15T14:11:39.430Z,101813.91
2023-04-15T14:16:41.163Z,101819.53
2023-04-15T14:21:42.674Z,101841.94
2023-04-15T14:26:44.760Z,101832.72
2023-04-15T14:32:04.281Z,101839.28
2023-04-15T14:37:07.918Z,101838.16
2023-04-15T14:42:09.417Z,101837.31
2023-04-15T14:47:11.257Z,101849.34
2023-04-15T14:52:12.830Z,101847.03
2023-04-15T14:57:14.467Z,101849.38
2023-04-15T15:02:26.285Z,101865.59
2023-04-15T15:07:38.682Z,101872.72
2023-04-15T15:12:40.282Z,101876.75
2023-04-15T15:17:41.885Z,101871.97
2023-04-15T15:22:43.447Z,101887.28
2023-04-15T15:27:45.234Z,101882.06
2023-04-15T15:32:46.795Z,101886.69
2023-04-15T15:37:48.411Z,101889.72
2023-04-15T15:42:50.912Z,101891.75
2023-04-15T15:47:52.497Z,101897.66
2023-04-15T15:52:55.154Z,101906.41
2023-04-15T15:57:56.701Z,101915.69
2023-04-15T16:08:02.845Z,101931.22
2023-04-15T16:13:04.355Z,101934.91
2023-04-15T16:18:06.037Z,101919.63
2023-04-15T16:23:17.280Z,101943.28
2023-04-15T16:28:26.247Z,101943.53
2023-04-15T16:33:28.652Z,101942.44
2023-04-15T16:38:30.512Z,101956.47
2023-04-15T16:43:32.002Z,101955.53
2023-04-15T16:48:33.566Z,101964.84
2023-04-15T16:53:35.444Z,101970.75
2023-04-15T16:58:37.003Z,101973.41
2023-04-15T17:03:40.018Z,101975.50
2023-04-15T17:08:41.684Z,101981.25
2023-04-15T17:13:43.242Z,101984.47
2023-04-15T17:18:47.468Z,101983.75
2023-04-15T17:23:48.998Z,102005.91
2023-04-15T17:28:50.538Z,102005.03
2023-04-15T17:34:01.261Z,102003.03
2023-04-15T17:39:08.638Z,102007.38
2023-04-15T17:44:10.149Z,102000.59
2023-04-15T17:49:11.773Z,102017.03
2023-04-15T17:54:13.239Z,102008.38
2023-04-15T17:59:15.628Z,102016.91
2023-04-15T18:04:17.179Z,102028.09
2023-04-15T18:09:18.851Z,102028.31
2023-04-15T18:14:33.644Z,102027.81
2023-04-15T18:19:35.900Z,102035.50
2023-04-15T18:24:37.486Z,102035.38
2023-04-15T18:29:39.382Z,102030.56
2023-04-15T18:34:42.922Z,102040.22
2023-04-15T18:39:44.564Z,102050.09
2023-04-15T18:44:46.118Z,102063.97
2023-04-15T18:49:47.707Z,102067.81
2023-04-15T18:54:49.204Z,102075.09
2023-04-15T18:59:50.738Z,102078.44
2023-04-15T19:04:52.336Z,102070.28
2023-04-15T19:09:53.942Z,102078.59
2023-04-15T19:14:55.565Z,102086.59
2023-04-15T19:19:57.219Z,102091.81
2023-04-15T19:24:58.811Z,102087.84
2023-04-15T19:30:00.292Z,102099.38
2023-04-15T19:35:01.898Z,102096.75
2023-04-15T19:40:03.631Z,102102.47
2023-04-15T19:45:05.627Z,102097.88
2023-04-15T19:50:07.854Z,102105.28
2023-04-15T19:55:09.486Z,102114.78
2023-04-15T20:00:11.519Z,102120.25
2023-04-15T20:05:13.847Z,102126.19
2023-04-15T20:10:15.328Z,102128.31
2023-04-15T20:15:17.837Z,102115.56
2023-04-15T20:20:22.124Z,102116.78
2023-04-15T20:25:23.772Z,102117.91
2023-04-15T20:30:25.547Z,102114.31
2023-04-15T20:35:30.767Z,102120.63
2023-04-15T20:40:35.319Z,102125.97
2023-04-15T20:45:37.265Z,102126.44
2023-04-15T20:50:38.898Z,102123.47
2023-04-15T20:55:40.628Z,102119.16
2023-04-15T21:00:42.188Z,102131.50
2023-04-15T21:05:43.764Z,102129.78
2023-04-15T21:10:45.403Z,102129.28
2023-04-15T21:15:50.146Z,102137.31
2023-04-15T21:21:02.355Z,102138.19
2023-04-15T21:26:03.949Z,102134.38
2023-04-15T21:31:06.546Z,102135.22
2023-04-15T21:36:08.229Z,102142.53
2023-04-15T21:41:10.301Z,102135.22
2023-04-15T21:46:21.842Z,102143.03
2023-04-15T21:51:25.818Z,102156.00
2023-04-15T21:56:27.352Z,102155.63
2023-04-15T22:01:29.014Z,102159.22
2023-04-15T22:06:31.691Z,102159.97
2023-04-15T22:11:33.326Z,102161.44
2023-04-15T22:16:34.904Z,102177.53
2023-04-15T22:21:36.520Z,102184.81
2023-04-15T22:26:38.767Z,102184.22
2023-04-15T22:31:40.566Z,102183.22
2023-04-15T22:36:42.107Z,102187.03
2023-04-15T22:41:44.250Z,102188.13
2023-04-15T22:46:45.813Z,102195.53
2023-04-15T22:51:47.304Z,102195.41
2023-04-15T22:56:48.811Z,102208.28
2023-04-15T23:01:50.647Z,102213.28
2023-04-15T23:06:52.533Z,102224.03
2023-04-15T23:11:54.736Z,102223.53
2023-04-15T23:16:57.684Z,102221.66
2023-04-15T23:21:59.221Z,102224.16
2023-04-15T23:27:01.420Z,102234.28
2023-04-15T23:32:03.165Z,102230.81
2023-04-15T23:37:04.723Z,102224.75
2023-04-15T23:42:06.801Z,102219.56
2023-04-15T23:47:08.328Z,102221.31
2023-04-15T23:52:09.874Z,102229.59
2023-04-15T23:57:11.354Z,102231.31
